sensor_id;sensor_type;location;lat;lon;timestamp;temperature;humidity
78886;DHT22;68269;52.514;5.722;2023-05-07T00:01:24;16.00;69.70
78886;DHT22;68269;52.514;5.722;2023-05-07T00:03:54;16.00;69.70
78886;DHT22;68269;52.514;5.722;2023-05-07T00:06:23;16.00;69.70
78886;DHT22;68269;52.514;5.722;2023-05-07T00:08:55;16.00;69.70
78886;DHT22;68269;52.514;5.722;2023-05-07T00:11:25;16.00;69.70
78886;DHT22;68269;52.514;5.722;2023-05-07T00:13:54;16.00;69.70
78886;DHT22;68269;52.514;5.722;2023-05-07T00:16:26;16.00;69.70
78886;DHT22;68269;52.514;5.722;2023-05-07T00:18:55;16.00;69.80
78886;DHT22;68269;52.514;5.722;2023-05-07T00:21:25;16.00;69.70
78886;DHT22;68269;52.514;5.722;2023-05-07T00:23:55;16.00;69.80
78886;DHT22;68269;52.514;5.722;2023-05-07T00:26:24;16.00;69.80
78886;DHT22;68269;52.514;5.722;2023-05-07T00:28:53;16.00;69.80
78886;DHT22;68269;52.514;5.722;2023-05-07T00:31:22;16.00;69.80
78886;DHT22;68269;52.514;5.722;2023-05-07T00:33:54;16.00;69.80
78886;DHT22;68269;52.514;5.722;2023-05-07T00:36:24;16.00;69.80
78886;DHT22;68269;52.514;5.722;2023-05-07T00:38:54;16.00;69.70
78886;DHT22;68269;52.514;5.722;2023-05-07T00:41:23;16.00;69.80
78886;DHT22;68269;52.514;5.722;2023-05-07T00:43:53;16.00;69.80
78886;DHT22;68269;52.514;5.722;2023-05-07T00:46:23;16.00;69.80
78886;DHT22;68269;52.514;5.722;2023-05-07T00:48:55;16.00;69.80
78886;DHT22;68269;52.514;5.722;2023-05-07T00:51:25;16.00;69.90
78886;DHT22;68269;52.514;5.722;2023-05-07T00:53:55;16.00;69.90
78886;DHT22;68269;52.514;5.722;2023-05-07T00:56:25;16.00;69.90
78886;DHT22;68269;52.514;5.722;2023-05-07T00:58:54;16.00;69.90
78886;DHT22;68269;52.514;5.722;2023-05-07T01:01:24;16.00;69.90
78886;DHT22;68269;52.514;5.722;2023-05-07T01:03:56;16.00;69.90
78886;DHT22;68269;52.514;5.722;2023-05-07T01:06:26;16.00;69.90
78886;DHT22;68269;52.514;5.722;2023-05-07T01:08:56;15.90;69.90
78886;DHT22;68269;52.514;5.722;2023-05-07T01:11:26;15.90;69.90
78886;DHT22;68269;52.514;5.722;2023-05-07T01:13:56;15.80;69.90
78886;DHT22;68269;52.514;5.722;2023-05-07T01:16:25;15.90;70.00
78886;DHT22;68269;52.514;5.722;2023-05-07T01:18:57;15.80;70.00
78886;DHT22;68269;52.514;5.722;2023-05-07T01:21:27;15.80;70.10
78886;DHT22;68269;52.514;5.722;2023-05-07T01:24:06;15.80;70.10
78886;DHT22;68269;52.514;5.722;2023-05-07T01:26:36;15.80;70.10
78886;DHT22;68269;52.514;5.722;2023-05-07T01:29:06;15.80;70.10
78886;DHT22;68269;52.514;5.722;2023-05-07T01:31:36;15.80;70.10
78886;DHT22;68269;52.514;5.722;2023-05-07T01:34:07;15.80;70.10
78886;DHT22;68269;52.514;5.722;2023-05-07T01:36:38;15.80;70.10
78886;DHT22;68269;52.514;5.722;2023-05-07T01:39:12;15.80;70.20
78886;DHT22;68269;52.514;5.722;2023-05-07T01:41:43;15.80;70.20
78886;DHT22;68269;52.514;5.722;2023-05-07T01:44:13;15.70;70.20
78886;DHT22;68269;52.514;5.722;2023-05-07T01:46:44;15.70;70.20
78886;DHT22;68269;52.514;5.722;2023-05-07T01:49:14;15.70;70.30
78886;DHT22;68269;52.514;5.722;2023-05-07T01:51:44;15.70;70.30
78886;DHT22;68269;52.514;5.722;2023-05-07T01:54:16;15.70;70.30
78886;DHT22;68269;52.514;5.722;2023-05-07T01:56:47;15.70;70.30
78886;DHT22;68269;52.514;5.722;2023-05-07T01:59:17;15.70;70.30
78886;DHT22;68269;52.514;5.722;2023-05-07T02:01:46;15.60;70.30
78886;DHT22;68269;52.514;5.722;2023-05-07T02:04:15;15.60;70.40
78886;DHT22;68269;52.514;5.722;2023-05-07T02:06:45;15.70;70.40
78886;DHT22;68269;52.514;5.722;2023-05-07T02:09:17;15.60;70.40
78886;DHT22;68269;52.514;5.722;2023-05-07T02:11:49;15.70;70.40
78886;DHT22;68269;52.514;5.722;2023-05-07T02:14:19;15.70;70.50
78886;DHT22;68269;52.514;5.722;2023-05-07T02:16:49;15.70;70.50
78886;DHT22;68269;52.514;5.722;2023-05-07T02:19:18;15.70;70.50
78886;DHT22;68269;52.514;5.722;2023-05-07T02:21:48;15.70;70.50
78886;DHT22;68269;52.514;5.722;2023-05-07T02:24:20;15.70;70.50
78886;DHT22;68269;52.514;5.722;2023-05-07T02:26:49;15.60;70.60
78886;DHT22;68269;52.514;5.722;2023-05-07T02:29:18;15.60;70.60
78886;DHT22;68269;52.514;5.722;2023-05-07T02:31:48;15.60;70.70
78886;DHT22;68269;52.514;5.722;2023-05-07T02:34:19;15.60;70.70
78886;DHT22;68269;52.514;5.722;2023-05-07T02:36:48;15.60;70.70
78886;DHT22;68269;52.514;5.722;2023-05-07T02:39:24;15.60;70.70
78886;DHT22;68269;52.514;5.722;2023-05-07T02:41:53;15.60;70.80
78886;DHT22;68269;52.514;5.722;2023-05-07T02:44:22;15.60;70.80
78886;DHT22;68269;52.514;5.722;2023-05-07T02:46:52;15.60;70.80
78886;DHT22;68269;52.514;5.722;2023-05-07T02:49:22;15.50;70.90
78886;DHT22;68269;52.514;5.722;2023-05-07T02:51:51;15.50;70.90
78886;DHT22;68269;52.514;5.722;2023-05-07T02:54:26;15.50;70.90
78886;DHT22;68269;52.514;5.722;2023-05-07T02:56:55;15.60;71.00
78886;DHT22;68269;52.514;5.722;2023-05-07T02:59:25;15.60;70.90
78886;DHT22;68269;52.514;5.722;2023-05-07T03:01:54;15.50;70.90
78886;DHT22;68269;52.514;5.722;2023-05-07T03:04:23;15.50;71.00
78886;DHT22;68269;52.514;5.722;2023-05-07T03:06:53;15.50;70.90
78886;DHT22;68269;52.514;5.722;2023-05-07T03:09:25;15.50;71.00
78886;DHT22;68269;52.514;5.722;2023-05-07T03:11:54;15.50;71.00
78886;DHT22;68269;52.514;5.722;2023-05-07T03:14:25;15.50;71.00
78886;DHT22;68269;52.514;5.722;2023-05-07T03:16:54;15.50;71.00
78886;DHT22;68269;52.514;5.722;2023-05-07T03:19:23;15.50;71.10
78886;DHT22;68269;52.514;5.722;2023-05-07T03:21:53;15.50;71.10
78886;DHT22;68269;52.514;5.722;2023-05-07T03:24:25;15.50;71.10
78886;DHT22;68269;52.514;5.722;2023-05-07T03:26:54;15.50;71.10
78886;DHT22;68269;52.514;5.722;2023-05-07T03:29:24;15.50;71.20
78886;DHT22;68269;52.514;5.722;2023-05-07T03:31:53;15.40;71.20
78886;DHT22;68269;52.514;5.722;2023-05-07T03:34:23;15.40;71.20
78886;DHT22;68269;52.514;5.722;2023-05-07T03:36:52;15.40;71.20
78886;DHT22;68269;52.514;5.722;2023-05-07T03:39:25;15.50;71.20
78886;DHT22;68269;52.514;5.722;2023-05-07T03:41:55;15.50;71.20
78886;DHT22;68269;52.514;5.722;2023-05-07T03:44:24;15.50;71.20
78886;DHT22;68269;52.514;5.722;2023-05-07T03:46:53;15.50;71.20
78886;DHT22;68269;52.514;5.722;2023-05-07T03:49:23;15.50;71.20
78886;DHT22;68269;52.514;5.722;2023-05-07T03:51:52;15.50;71.20
78886;DHT22;68269;52.514;5.722;2023-05-07T03:54:21;15.50;71.20
78886;DHT22;68269;52.514;5.722;2023-05-07T03:56:53;15.40;71.20
78886;DHT22;68269;52.514;5.722;2023-05-07T03:59:23;15.40;71.30
78886;DHT22;68269;52.514;5.722;2023-05-07T04:01:52;15.40;71.20
78886;DHT22;68269;52.514;5.722;2023-05-07T04:04:23;15.40;71.20
78886;DHT22;68269;52.514;5.722;2023-05-07T04:06:53;15.40;71.20
78886;DHT22;68269;52.514;5.722;2023-05-07T04:09:22;15.40;71.20
78886;DHT22;68269;52.514;5.722;2023-05-07T04:11:54;15.30;71.30
78886;DHT22;68269;52.514;5.722;2023-05-07T04:14:24;15.30;71.30
78886;DHT22;68269;52.514;5.722;2023-05-07T04:16:53;15.30;71.30
78886;DHT22;68269;52.514;5.722;2023-05-07T04:19:23;15.30;71.20
78886;DHT22;68269;52.514;5.722;2023-05-07T04:21:53;15.30;71.20
78886;DHT22;68269;52.514;5.722;2023-05-07T04:24:23;15.30;71.20
78886;DHT22;68269;52.514;5.722;2023-05-07T04:26:55;15.30;71.20
78886;DHT22;68269;52.514;5.722;2023-05-07T04:29:25;15.20;71.20
78886;DHT22;68269;52.514;5.722;2023-05-07T04:31:55;15.20;71.20
78886;DHT22;68269;52.514;5.722;2023-05-07T04:34:25;15.10;71.20
78886;DHT22;68269;52.514;5.722;2023-05-07T04:36:58;15.10;71.20
78886;DHT22;68269;52.514;5.722;2023-05-07T04:39:28;15.00;71.20
78886;DHT22;68269;52.514;5.722;2023-05-07T04:42:00;15.00;71.20
78886;DHT22;68269;52.514;5.722;2023-05-07T04:44:30;15.00;71.20
78886;DHT22;68269;52.514;5.722;2023-05-07T04:47:00;15.00;71.20
78886;DHT22;68269;52.514;5.722;2023-05-07T04:49:30;15.00;71.10
78886;DHT22;68269;52.514;5.722;2023-05-07T04:51:59;15.00;71.10
78886;DHT22;68269;52.514;5.722;2023-05-07T04:54:29;15.00;71.10
78886;DHT22;68269;52.514;5.722;2023-05-07T04:57:03;15.00;71.00
78886;DHT22;68269;52.514;5.722;2023-05-07T04:59:34;15.00;71.10
78886;DHT22;68269;52.514;5.722;2023-05-07T05:02:03;15.00;71.00
78886;DHT22;68269;52.514;5.722;2023-05-07T05:04:33;15.00;71.00
78886;DHT22;68269;52.514;5.722;2023-05-07T05:07:03;14.90;71.00
78886;DHT22;68269;52.514;5.722;2023-05-07T05:09:32;14.90;71.00
78886;DHT22;68269;52.514;5.722;2023-05-07T05:12:04;14.90;71.00
78886;DHT22;68269;52.514;5.722;2023-05-07T05:14:36;14.90;71.00
78886;DHT22;68269;52.514;5.722;2023-05-07T05:17:06;14.90;71.00
78886;DHT22;68269;52.514;5.722;2023-05-07T05:19:36;14.90;71.00
78886;DHT22;68269;52.514;5.722;2023-05-07T05:22:06;14.90;70.90
78886;DHT22;68269;52.514;5.722;2023-05-07T05:24:35;14.90;70.90
78886;DHT22;68269;52.514;5.722;2023-05-07T05:27:07;15.00;70.90
78886;DHT22;68269;52.514;5.722;2023-05-07T05:29:36;15.00;70.90
78886;DHT22;68269;52.514;5.722;2023-05-07T05:32:06;15.00;70.90
78886;DHT22;68269;52.514;5.722;2023-05-07T05:34:36;15.00;70.90
78886;DHT22;68269;52.514;5.722;2023-05-07T05:37:06;15.00;70.80
78886;DHT22;68269;52.514;5.722;2023-05-07T05:39:36;15.00;70.80
78886;DHT22;68269;52.514;5.722;2023-05-07T05:42:10;15.00;70.70
78886;DHT22;68269;52.514;5.722;2023-05-07T05:44:39;15.00;70.80
78886;DHT22;68269;52.514;5.722;2023-05-07T05:47:09;14.90;70.80
78886;DHT22;68269;52.514;5.722;2023-05-07T05:49:38;14.90;70.80
78886;DHT22;68269;52.514;5.722;2023-05-07T05:52:11;14.90;70.80
78886;DHT22;68269;52.514;5.722;2023-05-07T05:54:41;14.90;70.80
78886;DHT22;68269;52.514;5.722;2023-05-07T05:57:13;14.90;70.80
78886;DHT22;68269;52.514;5.722;2023-05-07T05:59:44;14.90;70.80
78886;DHT22;68269;52.514;5.722;2023-05-07T06:02:13;14.90;70.70
78886;DHT22;68269;52.514;5.722;2023-05-07T06:04:43;14.90;70.70
78886;DHT22;68269;52.514;5.722;2023-05-07T06:07:17;14.90;70.70
78886;DHT22;68269;52.514;5.722;2023-05-07T06:09:46;14.90;70.70
78886;DHT22;68269;52.514;5.722;2023-05-07T06:12:18;14.90;70.70
78886;DHT22;68269;52.514;5.722;2023-05-07T06:14:48;14.90;70.60
78886;DHT22;68269;52.514;5.722;2023-05-07T06:17:18;14.90;70.60
78886;DHT22;68269;52.514;5.722;2023-05-07T06:19:47;14.90;70.60
78886;DHT22;68269;52.514;5.722;2023-05-07T06:22:19;14.90;70.60
78886;DHT22;68269;52.514;5.722;2023-05-07T06:24:48;14.90;70.50
78886;DHT22;68269;52.514;5.722;2023-05-07T06:27:20;14.90;70.50
78886;DHT22;68269;52.514;5.722;2023-05-07T06:29:49;14.90;70.50
78886;DHT22;68269;52.514;5.722;2023-05-07T06:32:19;14.90;70.40
78886;DHT22;68269;52.514;5.722;2023-05-07T06:34:49;15.00;70.40
78886;DHT22;68269;52.514;5.722;2023-05-07T06:37:19;15.00;70.30
78886;DHT22;68269;52.514;5.722;2023-05-07T06:40:01;15.00;70.30
78886;DHT22;68269;52.514;5.722;2023-05-07T06:42:36;15.00;70.20
78886;DHT22;68269;52.514;5.722;2023-05-07T06:45:43;15.00;70.20
78886;DHT22;68269;52.514;5.722;2023-05-07T06:48:13;15.00;70.20
78886;DHT22;68269;52.514;5.722;2023-05-07T06:50:52;15.10;70.20
78886;DHT22;68269;52.514;5.722;2023-05-07T06:53:23;15.10;70.20
78886;DHT22;68269;52.514;5.722;2023-05-07T06:55:55;15.10;70.20
78886;DHT22;68269;52.514;5.722;2023-05-07T06:58:27;15.20;70.20
78886;DHT22;68269;52.514;5.722;2023-05-07T07:00:57;15.20;70.20
78886;DHT22;68269;52.514;5.722;2023-05-07T07:03:27;15.20;70.10
78886;DHT22;68269;52.514;5.722;2023-05-07T07:05:56;15.30;70.10
78886;DHT22;68269;52.514;5.722;2023-05-07T07:08:26;15.30;70.10
78886;DHT22;68269;52.514;5.722;2023-05-07T07:10:56;15.30;70.00
78886;DHT22;68269;52.514;5.722;2023-05-07T07:13:27;15.30;70.10
78886;DHT22;68269;52.514;5.722;2023-05-07T07:15:57;15.30;70.10
78886;DHT22;68269;52.514;5.722;2023-05-07T07:18:26;15.30;70.00
78886;DHT22;68269;52.514;5.722;2023-05-07T07:20:56;15.40;70.00
78886;DHT22;68269;52.514;5.722;2023-05-07T07:23:25;15.50;70.00
78886;DHT22;68269;52.514;5.722;2023-05-07T07:25:55;15.60;69.90
78886;DHT22;68269;52.514;5.722;2023-05-07T07:28:27;15.60;69.80
78886;DHT22;68269;52.514;5.722;2023-05-07T07:30:56;15.80;69.70
78886;DHT22;68269;52.514;5.722;2023-05-07T07:33:26;15.80;69.70
78886;DHT22;68269;52.514;5.722;2023-05-07T07:35:56;15.80;69.60
78886;DHT22;68269;52.514;5.722;2023-05-07T07:38:26;16.00;69.50
78886;DHT22;68269;52.514;5.722;2023-05-07T07:40:55;16.00;69.50
78886;DHT22;68269;52.514;5.722;2023-05-07T07:43:27;16.00;69.50
78886;DHT22;68269;52.514;5.722;2023-05-07T07:45:57;16.10;69.50
78886;DHT22;68269;52.514;5.722;2023-05-07T07:48:27;16.10;69.50
78886;DHT22;68269;52.514;5.722;2023-05-07T07:50:56;16.10;69.50
78886;DHT22;68269;52.514;5.722;2023-05-07T07:53:26;16.10;69.50
78886;DHT22;68269;52.514;5.722;2023-05-07T07:55:55;16.10;69.40
78886;DHT22;68269;52.514;5.722;2023-05-07T07:58:29;16.20;69.50
78886;DHT22;68269;52.514;5.722;2023-05-07T08:00:59;16.20;69.40
78886;DHT22;68269;52.514;5.722;2023-05-07T08:03:28;16.30;69.40
78886;DHT22;68269;52.514;5.722;2023-05-07T08:05:59;16.40;69.40
78886;DHT22;68269;52.514;5.722;2023-05-07T08:08:29;16.40;69.40
78886;DHT22;68269;52.514;5.722;2023-05-07T08:10:59;16.40;69.40
78886;DHT22;68269;52.514;5.722;2023-05-07T08:13:34;16.50;69.30
78886;DHT22;68269;52.514;5.722;2023-05-07T08:16:04;16.50;69.30
78886;DHT22;68269;52.514;5.722;2023-05-07T08:18:36;16.60;69.30
78886;DHT22;68269;52.514;5.722;2023-05-07T08:21:06;16.60;69.30
78886;DHT22;68269;52.514;5.722;2023-05-07T08:23:35;16.60;69.30
78886;DHT22;68269;52.514;5.722;2023-05-07T08:26:05;16.70;69.30
78886;DHT22;68269;52.514;5.722;2023-05-07T08:28:39;16.70;69.30
78886;DHT22;68269;52.514;5.722;2023-05-07T08:31:08;16.80;69.30
78886;DHT22;68269;52.514;5.722;2023-05-07T08:33:40;16.80;69.20
78886;DHT22;68269;52.514;5.722;2023-05-07T08:36:09;16.90;69.20
78886;DHT22;68269;52.514;5.722;2023-05-07T08:38:39;16.90;69.20
78886;DHT22;68269;52.514;5.722;2023-05-07T08:41:12;17.00;69.20
78886;DHT22;68269;52.514;5.722;2023-05-07T08:43:49;17.00;69.20
78886;DHT22;68269;52.514;5.722;2023-05-07T08:46:20;17.00;69.20
78886;DHT22;68269;52.514;5.722;2023-05-07T08:48:53;17.10;69.10
78886;DHT22;68269;52.514;5.722;2023-05-07T08:51:23;17.20;69.10
78886;DHT22;68269;52.514;5.722;2023-05-07T08:53:54;17.20;69.10
78886;DHT22;68269;52.514;5.722;2023-05-07T08:56:28;17.30;69.00
78886;DHT22;68269;52.514;5.722;2023-05-07T08:59:00;17.40;68.90
78886;DHT22;68269;52.514;5.722;2023-05-07T09:01:30;17.50;68.90
78886;DHT22;68269;52.514;5.722;2023-05-07T09:04:02;17.60;68.80
78886;DHT22;68269;52.514;5.722;2023-05-07T09:06:32;17.60;68.70
78886;DHT22;68269;52.514;5.722;2023-05-07T09:09:03;17.70;68.70
78886;DHT22;68269;52.514;5.722;2023-05-07T09:11:33;17.80;68.70
78886;DHT22;68269;52.514;5.722;2023-05-07T09:14:05;17.80;68.60
78886;DHT22;68269;52.514;5.722;2023-05-07T09:16:39;18.00;68.60
78886;DHT22;68269;52.514;5.722;2023-05-07T09:19:09;18.00;68.50
78886;DHT22;68269;52.514;5.722;2023-05-07T09:21:43;18.10;68.40
78886;DHT22;68269;52.514;5.722;2023-05-07T09:24:15;18.20;68.40
78886;DHT22;68269;52.514;5.722;2023-05-07T09:26:45;18.30;68.30
78886;DHT22;68269;52.514;5.722;2023-05-07T09:29:18;18.30;68.30
78886;DHT22;68269;52.514;5.722;2023-05-07T09:31:47;18.50;68.20
78886;DHT22;68269;52.514;5.722;2023-05-07T09:34:18;18.70;67.90
78886;DHT22;68269;52.514;5.722;2023-05-07T09:36:48;18.70;67.80
78886;DHT22;68269;52.514;5.722;2023-05-07T09:39:17;18.70;67.80
78886;DHT22;68269;52.514;5.722;2023-05-07T09:41:47;18.70;67.80
78886;DHT22;68269;52.514;5.722;2023-05-07T09:44:27;18.70;67.90
78886;DHT22;68269;52.514;5.722;2023-05-07T09:47:00;18.70;67.90
78886;DHT22;68269;52.514;5.722;2023-05-07T09:49:37;18.70;67.90
78886;DHT22;68269;52.514;5.722;2023-05-07T09:52:10;18.70;67.90
78886;DHT22;68269;52.514;5.722;2023-05-07T09:54:47;18.80;67.90
78886;DHT22;68269;52.514;5.722;2023-05-07T09:57:20;18.80;67.80
78886;DHT22;68269;52.514;5.722;2023-05-07T09:59:58;18.90;67.80
78886;DHT22;68269;52.514;5.722;2023-05-07T10:02:35;18.90;67.80
78886;DHT22;68269;52.514;5.722;2023-05-07T10:05:06;19.00;67.80
78886;DHT22;68269;52.514;5.722;2023-05-07T10:07:36;19.00;67.70
78886;DHT22;68269;52.514;5.722;2023-05-07T10:10:09;19.10;67.70
78886;DHT22;68269;52.514;5.722;2023-05-07T10:12:43;19.10;67.70
78886;DHT22;68269;52.514;5.722;2023-05-07T10:15:21;19.10;67.70
78886;DHT22;68269;52.514;5.722;2023-05-07T10:17:54;19.20;67.60
78886;DHT22;68269;52.514;5.722;2023-05-07T10:20:26;19.30;67.60
78886;DHT22;68269;52.514;5.722;2023-05-07T10:22:57;19.40;67.30
78886;DHT22;68269;52.514;5.722;2023-05-07T10:25:35;19.50;67.10
78886;DHT22;68269;52.514;5.722;2023-05-07T10:28:12;19.70;66.80
78886;DHT22;68269;52.514;5.722;2023-05-07T10:30:59;19.90;66.60
78886;DHT22;68269;52.514;5.722;2023-05-07T10:33:37;20.00;66.50
78886;DHT22;68269;52.514;5.722;2023-05-07T10:36:08;20.00;66.60
78886;DHT22;68269;52.514;5.722;2023-05-07T10:38:38;20.20;66.50
78886;DHT22;68269;52.514;5.722;2023-05-07T10:41:08;20.30;66.30
78886;DHT22;68269;52.514;5.722;2023-05-07T10:43:41;20.50;66.00
78886;DHT22;68269;52.514;5.722;2023-05-07T10:46:21;20.60;65.90
78886;DHT22;68269;52.514;5.722;2023-05-07T10:49:09;20.80;65.70
78886;DHT22;68269;52.514;5.722;2023-05-07T10:52:15;20.80;65.60
78886;DHT22;68269;52.514;5.722;2023-05-07T10:55:18;20.80;65.70
78886;DHT22;68269;52.514;5.722;2023-05-07T10:58:22;20.70;65.90
78886;DHT22;68269;52.514;5.722;2023-05-07T11:00:57;20.80;65.90
78886;DHT22;68269;52.514;5.722;2023-05-07T11:03:35;20.80;65.90
78886;DHT22;68269;52.514;5.722;2023-05-07T11:06:12;20.90;65.70
78886;DHT22;68269;52.514;5.722;2023-05-07T11:09:03;21.00;65.60
78886;DHT22;68269;52.514;5.722;2023-05-07T11:11:55;21.10;65.50
78886;DHT22;68269;52.514;5.722;2023-05-07T11:14:44;21.10;65.40
78886;DHT22;68269;52.514;5.722;2023-05-07T11:17:24;21.10;65.30
78886;DHT22;68269;52.514;5.722;2023-05-07T11:20:06;21.10;65.40
78886;DHT22;68269;52.514;5.722;2023-05-07T11:22:45;21.10;65.20
78886;DHT22;68269;52.514;5.722;2023-05-07T11:25:21;21.10;65.20
78886;DHT22;68269;52.514;5.722;2023-05-07T11:28:04;21.10;65.10
78886;DHT22;68269;52.514;5.722;2023-05-07T11:30:37;21.10;65.00
78886;DHT22;68269;52.514;5.722;2023-05-07T11:33:10;21.10;65.00
78886;DHT22;68269;52.514;5.722;2023-05-07T11:35:44;21.10;65.00
78886;DHT22;68269;52.514;5.722;2023-05-07T11:38:17;21.10;65.00
78886;DHT22;68269;52.514;5.722;2023-05-07T11:40:50;21.10;65.00
78886;DHT22;68269;52.514;5.722;2023-05-07T11:43:20;21.40;64.70
78886;DHT22;68269;52.514;5.722;2023-05-07T11:45:49;21.70;64.20
78886;DHT22;68269;52.514;5.722;2023-05-07T11:48:21;21.90;64.00
78886;DHT22;68269;52.514;5.722;2023-05-07T11:50:59;22.00;63.90
78886;DHT22;68269;52.514;5.722;2023-05-07T11:53:36;22.00;63.90
78886;DHT22;68269;52.514;5.722;2023-05-07T11:56:06;22.00;64.00
78886;DHT22;68269;52.514;5.722;2023-05-07T11:58:36;22.00;64.00
78886;DHT22;68269;52.514;5.722;2023-05-07T12:01:08;22.10;63.90
78886;DHT22;68269;52.514;5.722;2023-05-07T12:03:39;22.20;63.90
78886;DHT22;68269;52.514;5.722;2023-05-07T12:06:12;22.30;63.80
78886;DHT22;68269;52.514;5.722;2023-05-07T12:08:41;22.50;63.60
78886;DHT22;68269;52.514;5.722;2023-05-07T12:11:14;22.60;63.60
78886;DHT22;68269;52.514;5.722;2023-05-07T12:13:45;22.60;63.50
78886;DHT22;68269;52.514;5.722;2023-05-07T12:16:14;22.80;63.30
78886;DHT22;68269;52.514;5.722;2023-05-07T12:18:44;22.90;63.10
78886;DHT22;68269;52.514;5.722;2023-05-07T12:21:16;23.20;62.80
78886;DHT22;68269;52.514;5.722;2023-05-07T12:23:46;23.40;62.50
78886;DHT22;68269;52.514;5.722;2023-05-07T12:26:16;23.40;62.40
78886;DHT22;68269;52.514;5.722;2023-05-07T12:28:46;23.50;62.30
78886;DHT22;68269;52.514;5.722;2023-05-07T12:31:15;23.40;62.30
78886;DHT22;68269;52.514;5.722;2023-05-07T12:33:48;23.30;62.40
78886;DHT22;68269;52.514;5.722;2023-05-07T12:36:19;23.30;62.40
78886;DHT22;68269;52.514;5.722;2023-05-07T12:38:51;23.30;62.40
78886;DHT22;68269;52.514;5.722;2023-05-07T12:41:20;23.30;62.30
78886;DHT22;68269;52.514;5.722;2023-05-07T12:43:56;23.30;62.20
78886;DHT22;68269;52.514;5.722;2023-05-07T12:46:26;23.50;61.90
78886;DHT22;68269;52.514;5.722;2023-05-07T12:48:55;23.40;61.90
78886;DHT22;68269;52.514;5.722;2023-05-07T12:51:28;23.40;61.80
78886;DHT22;68269;52.514;5.722;2023-05-07T12:53:57;23.30;61.70
78886;DHT22;68269;52.514;5.722;2023-05-07T12:56:26;23.40;61.60
78886;DHT22;68269;52.514;5.722;2023-05-07T12:58:57;23.30;61.60
78886;DHT22;68269;52.514;5.722;2023-05-07T13:01:29;23.20;61.60
78886;DHT22;68269;52.514;5.722;2023-05-07T13:04:01;23.10;61.60
78886;DHT22;68269;52.514;5.722;2023-05-07T13:06:32;23.00;61.60
78886;DHT22;68269;52.514;5.722;2023-05-07T13:09:02;22.90;61.80
78886;DHT22;68269;52.514;5.722;2023-05-07T13:11:31;22.80;61.80
78886;DHT22;68269;52.514;5.722;2023-05-07T13:14:00;22.70;61.80
78886;DHT22;68269;52.514;5.722;2023-05-07T13:16:30;22.70;61.80
78886;DHT22;68269;52.514;5.722;2023-05-07T13:18:59;22.80;61.70
78886;DHT22;68269;52.514;5.722;2023-05-07T13:21:28;22.90;61.50
78886;DHT22;68269;52.514;5.722;2023-05-07T13:24:01;23.00;61.40
78886;DHT22;68269;52.514;5.722;2023-05-07T13:26:31;23.40;61.00
78886;DHT22;68269;52.514;5.722;2023-05-07T13:29:01;23.80;60.50
78886;DHT22;68269;52.514;5.722;2023-05-07T13:31:30;24.00;60.20
78886;DHT22;68269;52.514;5.722;2023-05-07T13:34:00;24.00;60.10
78886;DHT22;68269;52.514;5.722;2023-05-07T13:36:29;24.00;60.10
78886;DHT22;68269;52.514;5.722;2023-05-07T13:39:04;24.00;60.00
78886;DHT22;68269;52.514;5.722;2023-05-07T13:41:33;24.00;60.00
78886;DHT22;68269;52.514;5.722;2023-05-07T13:44:02;23.90;60.10
78886;DHT22;68269;52.514;5.722;2023-05-07T13:46:32;23.60;60.30
78886;DHT22;68269;52.514;5.722;2023-05-07T13:49:01;23.50;60.50
78886;DHT22;68269;52.514;5.722;2023-05-07T13:51:30;23.40;60.60
78886;DHT22;68269;52.514;5.722;2023-05-07T13:54:02;23.30;60.60
78886;DHT22;68269;52.514;5.722;2023-05-07T13:56:32;23.20;60.60
78886;DHT22;68269;52.514;5.722;2023-05-07T13:59:01;23.20;60.60
78886;DHT22;68269;52.514;5.722;2023-05-07T14:01:31;23.20;60.50
78886;DHT22;68269;52.514;5.722;2023-05-07T14:04:00;23.10;60.50
78886;DHT22;68269;52.514;5.722;2023-05-07T14:06:29;23.10;60.50
78886;DHT22;68269;52.514;5.722;2023-05-07T14:08:59;23.10;60.40
78886;DHT22;68269;52.514;5.722;2023-05-07T14:11:31;23.20;60.20
78886;DHT22;68269;52.514;5.722;2023-05-07T14:14:00;23.30;59.80
78886;DHT22;68269;52.514;5.722;2023-05-07T14:16:29;23.40;59.60
78886;DHT22;68269;52.514;5.722;2023-05-07T14:18:58;23.40;59.60
78886;DHT22;68269;52.514;5.722;2023-05-07T14:21:28;23.40;59.70
78886;DHT22;68269;52.514;5.722;2023-05-07T14:23:57;23.30;59.90
78886;DHT22;68269;52.514;5.722;2023-05-07T14:26:26;23.10;60.00
78886;DHT22;68269;52.514;5.722;2023-05-07T14:28:59;22.90;60.10
78886;DHT22;68269;52.514;5.722;2023-05-07T14:31:29;22.80;60.20
78886;DHT22;68269;52.514;5.722;2023-05-07T14:33:59;22.70;60.20
78886;DHT22;68269;52.514;5.722;2023-05-07T14:36:28;22.60;60.20
78886;DHT22;68269;52.514;5.722;2023-05-07T14:38:58;22.50;60.40
78886;DHT22;68269;52.514;5.722;2023-05-07T14:41:28;22.40;60.50
78886;DHT22;68269;52.514;5.722;2023-05-07T14:44:02;22.20;60.60
78886;DHT22;68269;52.514;5.722;2023-05-07T14:46:31;22.00;60.80
78886;DHT22;68269;52.514;5.722;2023-05-07T14:49:01;21.90;61.00
78886;DHT22;68269;52.514;5.722;2023-05-07T14:51:32;21.70;61.20
78886;DHT22;68269;52.514;5.722;2023-05-07T14:54:01;21.70;61.30
78886;DHT22;68269;52.514;5.722;2023-05-07T14:56:30;21.50;61.50
78886;DHT22;68269;52.514;5.722;2023-05-07T14:59:02;21.40;61.60
78886;DHT22;68269;52.514;5.722;2023-05-07T15:01:32;21.40;61.60
78886;DHT22;68269;52.514;5.722;2023-05-07T15:04:01;21.30;61.70
78886;DHT22;68269;52.514;5.722;2023-05-07T15:06:31;21.10;61.70
78886;DHT22;68269;52.514;5.722;2023-05-07T15:09:01;21.10;61.70
78886;DHT22;68269;52.514;5.722;2023-05-07T15:11:30;21.10;61.80
78886;DHT22;68269;52.514;5.722;2023-05-07T15:14:02;21.00;61.80
78886;DHT22;68269;52.514;5.722;2023-05-07T15:16:31;20.90;61.90
78886;DHT22;68269;52.514;5.722;2023-05-07T15:19:01;20.90;62.00
78886;DHT22;68269;52.514;5.722;2023-05-07T15:21:30;20.90;62.10
78886;DHT22;68269;52.514;5.722;2023-05-07T15:24:01;20.80;62.10
78886;DHT22;68269;52.514;5.722;2023-05-07T15:26:30;20.80;62.20
78886;DHT22;68269;52.514;5.722;2023-05-07T15:29:02;20.80;62.20
78886;DHT22;68269;52.514;5.722;2023-05-07T15:31:36;20.70;62.20
78886;DHT22;68269;52.514;5.722;2023-05-07T15:34:06;20.70;62.30
78886;DHT22;68269;52.514;5.722;2023-05-07T15:36:35;20.70;62.40
78886;DHT22;68269;52.514;5.722;2023-05-07T15:39:05;20.70;62.50
78886;DHT22;68269;52.514;5.722;2023-05-07T15:41:34;20.70;62.60
78886;DHT22;68269;52.514;5.722;2023-05-07T15:44:06;20.70;62.60
78886;DHT22;68269;52.514;5.722;2023-05-07T15:46:36;20.60;62.70
78886;DHT22;68269;52.514;5.722;2023-05-07T15:49:05;20.60;62.80
78886;DHT22;68269;52.514;5.722;2023-05-07T15:51:35;20.60;62.80
78886;DHT22;68269;52.514;5.722;2023-05-07T15:54:04;20.60;62.80
78886;DHT22;68269;52.514;5.722;2023-05-07T15:56:34;20.50;62.80